sensor_id;sensor_type;location;lat;lon;timestamp;pressure;altitude;pressure_sealevel;temperature;humidity
26043;BME280;13818;52.156;5.382;2023-03-15T00:02:07;100855.09;;;2.44;100.00
26043;BME280;13818;52.156;5.382;2023-03-15T00:04:34;100855.06;;;2.47;100.00
26043;BME280;13818;52.156;5.382;2023-03-15T00:07:01;100857.84;;;2.35;100.00
26043;BME280;13818;52.156;5.382;2023-03-15T00:09:28;100858.63;;;2.43;100.00
26043;BME280;13818;52.156;5.382;2023-03-15T00:11:54;100864.69;;;2.51;100.00
26043;BME280;13818;52.156;5.382;2023-03-15T00:14:22;100861.94;;;2.59;100.00
26043;BME280;13818;52.156;5.382;2023-03-15T00:16:48;100855.66;;;2.69;100.00
26043;BME280;13818;52.156;5.382;2023-03-15T00:19:15;100861.91;;;2.60;100.00
26043;BME280;13818;52.156;5.382;2023-03-15T00:21:42;100856.56;;;2.70;100.00
26043;BME280;13818;52.156;5.382;2023-03-15T00:24:09;100869.53;;;2.84;100.00
26043;BME280;13818;52.156;5.382;2023-03-15T00:26:36;100868.81;;;2.69;100.00
26043;BME280;13818;52.156;5.382;2023-03-15T00:29:03;100873.34;;;2.58;100.00
26043;BME280;13818;52.156;5.382;2023-03-15T00:31:31;100875.03;;;2.65;100.00
26043;BME280;13818;52.156;5.382;2023-03-15T00:33:57;100878.34;;;2.80;100.00
26043;BME280;13818;52.156;5.382;2023-03-15T00:36:24;100880.16;;;2.74;100.00
26043;BME280;13818;52.156;5.382;2023-03-15T00:38:52;100869.59;;;2.78;100.00
26043;BME280;13818;52.156;5.382;2023-03-15T00:41:20;100872.22;;;2.79;100.00
26043;BME280;13818;52.156;5.382;2023-03-15T00:43:47;100873.81;;;2.89;100.00
26043;BME280;13818;52.156;5.382;2023-03-15T00:46:15;100886.28;;;2.76;100.00
26043;BME280;13818;52.156;5.382;2023-03-15T00:48:46;100885.50;;;2.70;100.00
26043;BME280;13818;52.156;5.382;2023-03-15T00:51:15;100872.22;;;2.79;100.00
26043;BME280;13818;52.156;5.382;2023-03-15T00:53:43;100891.50;;;2.80;100.00
26043;BME280;13818;52.156;5.382;2023-03-15T00:56:12;100880.06;;;2.82;100.00
26043;BME280;13818;52.156;5.382;2023-03-15T00:58:39;100887.03;;;2.85;100.00
26043;BME280;13818;52.156;5.382;2023-03-15T01:01:06;100900.22;;;2.83;100.00
26043;BME280;13818;52.156;5.382;2023-03-15T01:03:34;100895.84;;;2.82;100.00
26043;BME280;13818;52.156;5.382;2023-03-15T01:06:05;100900.22;;;2.83;100.00
26043;BME280;13818;52.156;5.382;2023-03-15T01:08:31;100908.94;;;2.88;100.00
26043;BME280;13818;52.156;5.382;2023-03-15T01:11:01;100921.13;;;2.96;100.00
26043;BME280;13818;52.156;5.382;2023-03-15T01:13:27;100924.66;;;2.95;100.00
26043;BME280;13818;52.156;5.382;2023-03-15T01:15:54;100917.66;;;2.92;100.00
26043;BME280;13818;52.156;5.382;2023-03-15T01:18:21;100916.81;;;2.90;100.00
26043;BME280;13818;52.156;5.382;2023-03-15T01:20:48;100914.16;;;2.90;100.00
26043;BME280;13818;52.156;5.382;2023-03-15T01:23:16;100923.03;;;2.84;100.00
26043;BME280;13818;52.156;5.382;2023-03-15T01:25:42;100929.09;;;2.92;100.00
26043;BME280;13818;52.156;5.382;2023-03-15T01:28:09;100931.72;;;2.92;100.00
26043;BME280;13818;52.156;5.382;2023-03-15T01:30:35;100929.25;;;2.80;100.00
26043;BME280;13818;52.156;5.382;2023-03-15T01:33:02;100933.63;;;2.80;100.00
26043;BME280;13818;52.156;5.382;2023-03-15T01:35:29;100938.78;;;2.87;100.00
26043;BME280;13818;52.156;5.382;2023-03-15T01:37:55;100940.50;;;2.90;100.00
26043;BME280;13818;52.156;5.382;2023-03-15T01:40:23;100945.69;;;2.98;100.00
26043;BME280;13818;52.156;5.382;2023-03-15T01:42:51;100942.16;;;2.99;100.00
26043;BME280;13818;52.156;5.382;2023-03-15T01:45:53;100956.22;;;2.96;100.00
26043;BME280;13818;52.156;5.382;2023-03-15T01:48:24;100947.44;;;2.97;100.00
26043;BME280;13818;52.156;5.382;2023-03-15T01:50:53;100943.97;;;2.95;100.00
26043;BME280;13818;52.156;5.382;2023-03-15T01:53:21;100946.78;;;2.81;100.00
26043;BME280;13818;52.156;5.382;2023-03-15T01:55:49;100952.19;;;2.69;100.00
26043;BME280;13818;52.156;5.382;2023-03-15T01:58:17;100956.47;;;2.78;100.00
26043;BME280;13818;52.156;5.382;2023-03-15T02:00:44;100952.09;;;2.76;100.00
26043;BME280;13818;52.156;5.382;2023-03-15T02:03:12;100954.69;;;2.78;100.00
26043;BME280;13818;52.156;5.382;2023-03-15T02:05:45;100962.72;;;2.67;100.00
26043;BME280;13818;52.156;5.382;2023-03-15T02:08:15;100963.41;;;2.83;100.00
26043;BME280;13818;52.156;5.382;2023-03-15T02:10:47;100964.38;;;2.78;100.00
26043;BME280;13818;52.156;5.382;2023-03-15T02:13:17;100964.38;;;2.74;100.00
26043;BME280;13818;52.156;5.382;2023-03-15T02:15:49;100960.09;;;2.66;100.00
26043;BME280;13818;52.156;5.382;2023-03-15T02:18:18;100960.09;;;2.66;100.00
26043;BME280;13818;52.156;5.382;2023-03-15T02:20:50;100962.75;;;2.64;100.00
26043;BME280;13818;52.156;5.382;2023-03-15T02:23:21;100979.47;;;2.60;100.00
26043;BME280;13818;52.156;5.382;2023-03-15T02:25:53;100969.88;;;2.57;100.00
26043;BME280;13818;52.156;5.382;2023-03-15T02:28:24;100986.47;;;2.63;100.00
26043;BME280;13818;52.156;5.382;2023-03-15T02:30:51;100974.19;;;2.62;100.00
26043;BME280;13818;52.156;5.382;2023-03-15T02:33:22;100985.53;;;2.67;100.00
26043;BME280;13818;52.156;5.382;2023-03-15T02:35:51;100984.56;;;2.75;100.00
26043;BME280;13818;52.156;5.382;2023-03-15T02:38:18;100994.16;;;2.83;100.00
26043;BME280;13818;52.156;5.382;2023-03-15T02:40:47;100999.34;;;2.87;100.00
26043;BME280;13818;52.156;5.382;2023-03-15T02:43:16;100998.53;;;2.82;100.00
26043;BME280;13818;52.156;5.382;2023-03-15T02:45:46;100998.63;;;2.74;100.00
26043;BME280;13818;52.156;5.382;2023-03-15T02:48:13;100996.88;;;2.75;100.00
26043;BME280;13818;52.156;5.382;2023-03-15T02:50:39;101006.56;;;2.71;100.00
26043;BME280;13818;52.156;5.382;2023-03-15T02:53:06;101012.72;;;2.69;100.00
26043;BME280;13818;52.156;5.382;2023-03-15T02:55:33;101016.19;;;2.72;100.00
26043;BME280;13818;52.156;5.382;2023-03-15T02:58:00;101015.41;;;2.64;100.00
26043;BME280;13818;52.156;5.382;2023-03-15T03:00:27;101018.97;;;2.57;100.00
26043;BME280;13818;52.156;5.382;2023-03-15T03:02:56;101030.34;;;2.60;100.00
26043;BME280;13818;52.156;5.382;2023-03-15T03:05:23;101038.28;;;2.56;100.00
26043;BME280;13818;52.156;5.382;2023-03-15T03:07:49;101038.16;;;2.68;100.00
26043;BME280;13818;52.156;5.382;2023-03-15T03:10:17;101039.22;;;2.50;100.00
26043;BME280;13818;52.156;5.382;2023-03-15T03:12:44;101052.31;;;2.58;100.00
26043;BME280;13818;52.156;5.382;2023-03-15T03:15:11;101046.19;;;2.57;100.00
26043;BME280;13818;52.156;5.382;2023-03-15T03:17:38;101055.84;;;2.54;100.00
26043;BME280;13818;52.156;5.382;2023-03-15T03:20:08;101056.81;;;2.45;100.00
26043;BME280;13818;52.156;5.382;2023-03-15T03:22:36;101062.03;;;2.50;100.00
26043;BME280;13818;52.156;5.382;2023-03-15T03:25:03;101059.44;;;2.47;100.00
26043;BME280;13818;52.156;5.382;2023-03-15T03:27:30;101062.94;;;2.49;100.00
26043;BME280;13818;52.156;5.382;2023-03-15T03:30:00;101077.78;;;2.53;100.00
26043;BME280;13818;52.156;5.382;2023-03-15T03:32:27;101077.84;;;2.50;100.00
26043;BME280;13818;52.156;5.382;2023-03-15T03:34:54;101078.69;;;2.50;100.00
26043;BME280;13818;52.156;5.382;2023-03-15T03:37:21;101084.81;;;2.51;100.00
26043;BME280;13818;52.156;5.382;2023-03-15T03:39:48;101095.25;;;2.63;100.00
26043;BME280;13818;52.156;5.382;2023-03-15T03:42:14;101087.34;;;2.66;100.00
26043;BME280;13818;52.156;5.382;2023-03-15T03:44:41;101092.59;;;2.63;100.00
26043;BME280;13818;52.156;5.382;2023-03-15T03:47:08;101108.44;;;2.57;100.00
26043;BME280;13818;52.156;5.382;2023-03-15T03:49:34;101106.66;;;2.60;100.00
26043;BME280;13818;52.156;5.382;2023-03-15T03:52:01;101116.34;;;2.60;100.00
26043;BME280;13818;52.156;5.382;2023-03-15T03:54:28;101113.72;;;2.57;100.00
26043;BME280;13818;52.156;5.382;2023-03-15T03:56:56;101111.97;;;2.56;100.00
26043;BME280;13818;52.156;5.382;2023-03-15T03:59:22;101116.44;;;2.46;100.00
26043;BME280;13818;52.156;5.382;2023-03-15T04:01:49;101117.31;;;2.45;100.00
26043;BME280;13818;52.156;5.382;2023-03-15T04:04:16;101124.28;;;2.54;100.00
26043;BME280;13818;52.156;5.382;2023-03-15T04:06:42;101126.91;;;2.51;100.00
26043;BME280;13818;52.156;5.382;2023-03-15T04:09:10;101124.28;;;2.51;100.00
26043;BME280;13818;52.156;5.382;2023-03-15T04:11:38;101134.81;;;2.52;100.00
26043;BME280;13818;52.156;5.382;2023-03-15T04:14:07;101129.59;;;2.46;100.00
26043;BME280;13818;52.156;5.382;2023-03-15T04:16:33;101141.88;;;2.49;100.00
26043;BME280;13818;52.156;5.382;2023-03-15T04:18:59;101139.28;;;2.41;100.00
26043;BME280;13818;52.156;5.382;2023-03-15T04:21:26;101148.03;;;2.43;100.00
26043;BME280;13818;52.156;5.382;2023-03-15T04:23:56;101144.59;;;2.33;100.00
26043;BME280;13818;52.156;5.382;2023-03-15T04:26:22;101146.28;;;2.45;100.00
26043;BME280;13818;52.156;5.382;2023-03-15T04:28:52;101156.81;;;2.45;100.00
26043;BME280;13818;52.156;5.382;2023-03-15T04:31:19;101156.78;;;2.47;100.00
26043;BME280;13818;52.156;5.382;2023-03-15T04:33:46;101169.22;;;2.26;100.00
26043;BME280;13818;52.156;5.382;2023-03-15T04:36:12;101164.78;;;2.31;100.00
26043;BME280;13818;52.156;5.382;2023-03-15T04:38:43;101166.44;;;2.46;100.00
26043;BME280;13818;52.156;5.382;2023-03-15T04:41:11;101177.81;;;2.48;100.00
26043;BME280;13818;52.156;5.382;2023-03-15T04:43:37;101179.53;;;2.54;100.00
26043;BME280;13818;52.156;5.382;2023-03-15T04:46:06;101178.78;;;2.36;100.00
26043;BME280;13818;52.156;5.382;2023-03-15T04:48:32;101180.47;;;2.47;100.00
26043;BME280;13818;52.156;5.382;2023-03-15T04:50:59;101175.25;;;2.39;100.00
26043;BME280;13818;52.156;5.382;2023-03-15T04:53:26;101186.72;;;2.30;100.00
26043;BME280;13818;52.156;5.382;2023-03-15T04:55:52;101187.63;;;2.26;100.00
26043;BME280;13818;52.156;5.382;2023-03-15T04:58:19;101188.53;;;2.23;100.00
26043;BME280;13818;52.156;5.382;2023-03-15T05:00:45;101197.28;;;2.24;100.00
26043;BME280;13818;52.156;5.382;2023-03-15T05:03:13;101199.00;;;2.30;100.00
26043;BME280;13818;52.156;5.382;2023-03-15T05:05:47;101200.69;;;2.37;100.00
26043;BME280;13818;52.156;5.382;2023-03-15T05:08:14;101202.47;;;2.32;100.00
26043;BME280;13818;52.156;5.382;2023-03-15T05:10:42;101208.69;;;2.21;100.00
26043;BME280;13818;52.156;5.382;2023-03-15T05:13:09;101212.25;;;2.16;100.00
26043;BME280;13818;52.156;5.382;2023-03-15T05:15:35;101214.06;;;2.04;100.00
26043;BME280;13818;52.156;5.382;2023-03-15T05:18:02;101225.41;;;2.02;100.00
26043;BME280;13818;52.156;5.382;2023-03-15T05:20:30;101237.69;;;2.07;100.00
26043;BME280;13818;52.156;5.382;2023-03-15T05:22:56;101244.75;;;1.96;100.00
26043;BME280;13818;52.156;5.382;2023-03-15T05:25:23;101251.78;;;1.95;100.00
26043;BME280;13818;52.156;5.382;2023-03-15T05:27:49;101249.97;;;2.02;100.00
26043;BME280;13818;52.156;5.382;2023-03-15T05:30:17;101255.25;;;1.98;100.00
26043;BME280;13818;52.156;5.382;2023-03-15T05:32:43;101257.88;;;1.96;100.00
26043;BME280;13818;52.156;5.382;2023-03-15T05:35:11;101259.63;;;1.94;100.00
26043;BME280;13818;52.156;5.382;2023-03-15T05:37:39;101255.28;;;1.91;100.00
26043;BME280;13818;52.156;5.382;2023-03-15T05:40:08;101263.13;;;1.99;100.00
26043;BME280;13818;52.156;5.382;2023-03-15T05:42:35;101263.09;;;2.05;100.00
26043;BME280;13818;52.156;5.382;2023-03-15T05:45:02;101268.34;;;2.10;100.00
26043;BME280;13818;52.156;5.382;2023-03-15T05:47:29;101256.94;;;2.17;100.00
26043;BME280;13818;52.156;5.382;2023-03-15T05:49:55;101264.78;;;2.25;100.00
26043;BME280;13818;52.156;5.382;2023-03-15T05:52:21;101277.94;;;2.30;100.00
26043;BME280;13818;52.156;5.382;2023-03-15T05:54:49;101278.78;;;2.30;100.00
26043;BME280;13818;52.156;5.382;2023-03-15T05:57:16;101281.41;;;2.30;100.00
26043;BME280;13818;52.156;5.382;2023-03-15T05:59:42;101285.78;;;2.37;100.00
26043;BME280;13818;52.156;5.382;2023-03-15T06:02:09;101298.91;;;2.39;100.00
26043;BME280;13818;52.156;5.382;2023-03-15T06:04:35;101310.31;;;2.39;100.00
26043;BME280;13818;52.156;5.382;2023-03-15T06:07:03;101316.44;;;2.43;100.00
26043;BME280;13818;52.156;5.382;2023-03-15T06:09:30;101319.97;;;2.39;100.00
26043;BME280;13818;52.156;5.382;2023-03-15T06:11:57;101322.56;;;2.42;100.00
26043;BME280;13818;52.156;5.382;2023-03-15T06:14:24;101326.13;;;2.35;100.00
26043;BME280;13818;52.156;5.382;2023-03-15T06:16:51;101334.00;;;2.41;100.00
26043;BME280;13818;52.156;5.382;2023-03-15T06:19:17;101338.31;;;2.48;100.00
26043;BME280;13818;52.156;5.382;2023-03-15T06:21:44;101341.84;;;2.49;100.00
26043;BME280;13818;52.156;5.382;2023-03-15T06:24:10;101332.19;;;2.51;100.00
26043;BME280;13818;52.156;5.382;2023-03-15T06:26:38;101335.59;;;2.71;100.00
26043;BME280;13818;52.156;5.382;2023-03-15T06:29:06;101331.94;;;2.96;100.00
26043;BME280;13818;52.156;5.382;2023-03-15T06:31:32;101336.19;;;3.17;100.00
26043;BME280;13818;52.156;5.382;2023-03-15T06:33:59;101344.84;;;3.31;100.00
26043;BME280;13818;52.156;5.382;2023-03-15T06:36:25;101347.44;;;3.37;100.00
26043;BME280;13818;52.156;5.382;2023-03-15T06:38:52;101361.41;;;3.44;100.00
26043;BME280;13818;52.156;5.382;2023-03-15T06:41:19;101369.81;;;3.91;100.00
26043;BME280;13818;52.156;5.382;2023-03-15T06:43:47;101363.56;;;3.98;100.00
26043;BME280;13818;52.156;5.382;2023-03-15T06:46:15;101364.72;;;4.52;100.00
26043;BME280;13818;52.156;5.382;2023-03-15T06:48:41;101369.41;;;4.97;100.00
26043;BME280;13818;52.156;5.382;2023-03-15T06:51:08;101387.28;;;5.38;100.00
26043;BME280;13818;52.156;5.382;2023-03-15T06:53:35;101379.28;;;5.93;100.00
26043;BME280;13818;52.156;5.382;2023-03-15T06:56:01;101379.38;;;6.37;100.00
26043;BME280;13818;52.156;5.382;2023-03-15T06:58:28;101381.63;;;6.98;100.00
26043;BME280;13818;52.156;5.382;2023-03-15T07:00:55;101389.78;;;7.28;100.00
26043;BME280;13818;52.156;5.382;2023-03-15T07:03:23;101394.28;;;7.62;100.00
26043;BME280;13818;52.156;5.382;2023-03-15T07:05:49;101403.22;;;7.92;100.00
26043;BME280;13818;52.156;5.382;2023-03-15T07:08:18;101407.03;;;7.82;100.00
26043;BME280;13818;52.156;5.382;2023-03-15T07:10:44;101414.78;;;7.90;100.00
26043;BME280;13818;52.156;5.382;2023-03-15T07:13:12;101418.72;;;8.09;100.00
26043;BME280;13818;52.156;5.382;2023-03-15T07:15:39;101416.50;;;8.25;100.00
26043;BME280;13818;52.156;5.382;2023-03-15T07:18:06;101423.16;;;8.09;100.00
26043;BME280;13818;52.156;5.382;2023-03-15T07:20:33;101422.19;;;8.44;100.00
26043;BME280;13818;52.156;5.382;2023-03-15T07:23:00;101420.81;;;8.94;100.00
26043;BME280;13818;52.156;5.382;2023-03-15T07:25:27;101418.88;;;8.69;100.00
26043;BME280;13818;52.156;5.382;2023-03-15T07:27:53;101418.88;;;8.69;100.00
26043;BME280;13818;52.156;5.382;2023-03-15T07:30:20;101424.34;;;8.63;100.00
26043;BME280;13818;52.156;5.382;2023-03-15T07:32:47;101436.84;;;8.26;100.00
26043;BME280;13818;52.156;5.382;2023-03-15T07:35:13;101441.94;;;8.01;100.00
26043;BME280;13818;52.156;5.382;2023-03-15T07:37:43;101444.09;;;7.85;100.00
26043;BME280;13818;52.156;5.382;2023-03-15T07:40:11;101443.78;;;7.61;100.00
26043;BME280;13818;52.156;5.382;2023-03-15T07:42:38;101447.81;;;7.42;100.00
26043;BME280;13818;52.156;5.382;2023-03-15T07:45:06;101453.03;;;7.45;100.00
26043;BME280;13818;52.156;5.382;2023-03-15T07:47:32;101454.72;;;7.49;100.00
26043;BME280;13818;52.156;5.382;2023-03-15T07:50:00;101456.28;;;7.56;100.00
26043;BME280;13818;52.156;5.382;2023-03-15T07:52:29;101458.31;;;7.46;100.00
26043;BME280;13818;52.156;5.382;2023-03-15T07:54:56;101463.72;;;7.42;100.00
26043;BME280;13818;52.156;5.382;2023-03-15T07:57:23;101464.75;;;7.35;100.00
26043;BME280;13818;52.156;5.382;2023-03-15T07:59:51;101468.31;;;7.33;100.00
26043;BME280;13818;52.156;5.382;2023-03-15T08:02:18;101474.69;;;7.26;100.00
26043;BME280;13818;52.156;5.382;2023-03-15T08:04:44;101471.53;;;7.09;100.00
26043;BME280;13818;52.156;5.382;2023-03-15T08:07:11;101481.16;;;7.13;100.00
26043;BME280;13818;52.156;5.382;2023-03-15T08:09:37;101491.03;;;7.06;100.00
26043;BME280;13818;52.156;5.382;2023-03-15T08:12:06;101494.31;;;7.16;100.00
26043;BME280;13818;52.156;5.382;2023-03-15T08:14:32;101498.72;;;7.17;100.00
26043;BME280;13818;52.156;5.382;2023-03-15T08:16:59;101492.31;;;7.27;100.00
26043;BME280;13818;52.156;5.382;2023-03-15T08:19:25;101499.22;;;7.35;100.00
26043;BME280;13818;52.156;5.382;2023-03-15T08:21:52;101500.94;;;7.37;100.00
26043;BME280;13818;52.156;5.382;2023-03-15T08:24:19;101498.50;;;7.67;100.00
26043;BME280;13818;52.156;5.382;2023-03-15T08:26:46;101502.41;;;7.90;100.00
26043;BME280;13818;52.156;5.382;2023-03-15T08:29:14;101503.91;;;8.00;100.00
26043;BME280;13818;52.156;5.382;2023-03-15T08:31:41;101514.72;;;7.92;100.00
26043;BME280;13818;52.156;5.382;2023-03-15T08:34:07;101510.59;;;7.80;100.00
26043;BME280;13818;52.156;5.382;2023-03-15T08:36:34;101516.97;;;7.72;100.00
26043;BME280;13818;52.156;5.382;2023-03-15T08:39:00;101523.38;;;7.63;100.00
26043;BME280;13818;52.156;5.382;2023-03-15T08:41:29;101520.72;;;7.61;100.00
26043;BME280;13818;52.156;5.382;2023-03-15T08:43:56;101531.97;;;7.74;100.00
26043;BME280;13818;52.156;5.382;2023-03-15T08:46:24;101526.34;;;7.87;100.00
26043;BME280;13818;52.156;5.382;2023-03-15T08:48:50;101534.84;;;8.01;100.00
26043;BME280;13818;52.156;5.382;2023-03-15T08:51:17;101537.22;;;8.13;100.00
26043;BME280;13818;52.156;5.382;2023-03-15T08:53:44;101542.88;;;8.34;100.00
26043;BME280;13818;52.156;5.382;2023-03-15T08:56:10;101539.44;;;8.30;100.00
26043;BME280;13818;52.156;5.382;2023-03-15T08:58:37;101533.72;;;8.48;100.00
26043;BME280;13818;52.156;5.382;2023-03-15T09:01:03;101548.50;;;8.22;100.00
26043;BME280;13818;52.156;5.382;2023-03-15T09:03:31;101534.13;;;8.30;100.00
26043;BME280;13818;52.156;5.382;2023-03-15T09:05:59;101547.03;;;8.10;100.00
26043;BME280;13818;52.156;5.382;2023-03-15T09:08:25;101544.69;;;7.97;100.00
26043;BME280;13818;52.156;5.382;2023-03-15T09:10:56;101546.94;;;8.13;100.00
26043;BME280;13818;52.156;5.382;2023-03-15T09:13:24;101550.97;;;7.93;100.00
26043;BME280;13818;52.156;5.382;2023-03-15T09:15:51;101549.53;;;8.16;100.00
26043;BME280;13818;52.156;5.382;2023-03-15T09:18:18;101549.94;;;8.35;100.00
26043;BME280;13818;52.156;5.382;2023-03-15T09:20:46;101540.91;;;8.42;100.00
26043;BME280;13818;52.156;5.382;2023-03-15T09:23:13;101549.59;;;8.51;100.00
26043;BME280;13818;52.156;5.382;2023-03-15T09:25:40;101539.28;;;8.37;100.00
26043;BME280;13818;52.156;5.382;2023-03-15T09:28:08;101540.53;;;8.22;100.00
26043;BME280;13818;52.156;5.382;2023-03-15T09:30:37;101538.94;;;8.16;100.00
26043;BME280;13818;52.156;5.382;2023-03-15T09:33:03;101546.44;;;8.35;100.00
26043;BME280;13818;52.156;5.382;2023-03-15T09:35:30;101548.78;;;8.45;100.00
26043;BME280;13818;52.156;5.382;2023-03-15T09:37:59;101550.56;;;8.46;100.00
26043;BME280;13818;52.156;5.382;2023-03-15T09:40:27;101548.66;;;8.52;100.00
26043;BME280;13818;52.156;5.382;2023-03-15T09:43:01;101553.59;;;8.31;100.00
26043;BME280;13818;52.156;5.382;2023-03-15T09:45:43;101553.72;;;8.26;100.00
26043;BME280;13818;52.156;5.382;2023-03-15T09:48:19;101554.50;;;7.94;100.00
26043;BME280;13818;52.156;5.382;2023-03-15T09:50:50;101554.56;;;7.91;100.00
26043;BME280;13818;52.156;5.382;2023-03-15T09:53:23;101559.03;;;7.89;100.00
26043;BME280;13818;52.156;5.382;2023-03-15T09:55:52;101558.09;;;7.91;100.00
26043;BME280;13818;52.156;5.382;2023-03-15T09:58:21;101557.09;;;7.97;100.00
26043;BME280;13818;52.156;5.382;2023-03-15T10:00:52;101560.97;;;7.82;100.00
26043;BME280;13818;52.156;5.382;2023-03-15T10:03:23;101560.47;;;8.04;100.00
26043;BME280;13818;52.156;5.382;2023-03-15T10:05:55;101553.63;;;7.54;100.00
26043;BME280;13818;52.156;5.382;2023-03-15T10:08:24;101556.19;;;7.96;100.00
26043;BME280;13818;52.156;5.382;2023-03-15T10:10:53;101549.91;;;7.63;100.00
26043;BME280;13818;52.156;5.382;2023-03-15T10:13:36;101553.16;;;7.76;100.00
26043;BME280;13818;52.156;5.382;2023-03-15T10:16:18;101541.50;;;7.44;100.00
26043;BME280;13818;52.156;5.382;2023-03-15T10:18:57;101549.59;;;7.77;100.00
26043;BME280;13818;52.156;5.382;2023-03-15T10:21:32;101541.41;;;7.86;100.00
26043;BME280;13818;52.156;5.382;2023-03-15T10:24:04;101541.69;;;8.11;100.00
26043;BME280;13818;52.156;5.382;2023-03-15T10:26:36;101545.00;;;8.21;96.66
26043;BME280;13818;52.156;5.382;2023-03-15T10:29:12;101546.75;;;8.22;93.17
26043;BME280;13818;52.156;5.382;2023-03-15T10:31:41;101558.88;;;8.33;100.00
26043;BME280;13818;52.156;5.382;2023-03-15T10:34:11;101552.34;;;8.10;98.21
26043;BME280;13818;52.156;5.382;2023-03-15T10:36:43;101545.91;;;8.20;92.06
26043;BME280;13818;52.156;5.382;2023-03-15T10:39:12;101551.81;;;8.31;99.32
26043;BME280;13818;52.156;5.382;2023-03-15T10:41:40;101567.38;;;8.47;97.10
26043;BME280;13818;52.156;5.382;2023-03-15T10:44:11;101565.88;;;8.35;93.24
26043;BME280;13818;52.156;5.382;2023-03-15T10:46:38;101574.09;;;8.62;90.82
26043;BME280;13818;52.156;5.382;2023-03-15T10:49:08;101582.34;;;8.51;87.81
26043;BME280;13818;52.156;5.382;2023-03-15T10:51:38;101584.53;;;8.34;82.22
26043;BME280;13818;52.156;5.382;2023-03-15T10:54:09;101582.94;;;8.62;82.64
26043;BME280;13818;52.156;5.382;2023-03-15T10:56:44;101597.06;;;8.65;84.96
26043;BME280;13818;52.156;5.382;2023-03-15T10:59:17;101600.47;;;8.70;87.18
26043;BME280;13818;52.156;5.382;2023-03-15T11:01:47;101611.63;;;8.84;84.85
26043;BME280;13818;52.156;5.382;2023-03-15T11:04:17;101601.94;;;8.45;81.30
26043;BME280;13818;52.156;5.382;2023-03-15T11:06:47;101604.13;;;8.66;79.09
26043;BME280;13818;52.156;5.382;2023-03-15T11:09:16;101607.81;;;8.60;81.40
26043;BME280;13818;52.156;5.382;2023-03-15T11:11:50;101611.66;;;8.83;80.02
26043;BME280;13818;52.156;5.382;2023-03-15T11:14:17;101616.34;;;9.06;79.67
26043;BME280;13818;52.156;5.382;2023-03-15T11:16:46;101609.19;;;8.75;79.58
26043;BME280;13818;52.156;5.382;2023-03-15T11:19:15;101615.00;;;8.56;78.67
26043;BME280;13818;52.156;5.382;2023-03-15T11:21:43;101622.19;;;8.86;75.85
26043;BME280;13818;52.156;5.382;2023-03-15T11:24:20;101625.34;;;9.02;73.99
26043;BME280;13818;52.156;5.382;2023-03-15T11:26:47;101627.78;;;9.09;72.62
26043;BME280;13818;52.156;5.382;2023-03-15T11:29:21;101625.03;;;9.12;74.20
26043;BME280;13818;52.156;5.382;2023-03-15T11:31:48;101621.16;;;9.24;74.29
26043;BME280;13818;52.156;5.382;2023-03-15T11:34:23;101619.19;;;9.31;76.14
26043;BME280;13818;52.156;5.382;2023-03-15T11:36:54;101621.00;;;9.31;76.88
26043;BME280;13818;52.156;5.382;2023-03-15T11:39:27;101623.78;;;9.26;78.11
26043;BME280;13818;52.156;5.382;2023-03-15T11:42:01;101620.25;;;9.25;76.09
26043;BME280;13818;52.156;5.382;2023-03-15T11:44:36;101610.53;;;9.24;74.32
26043;BME280;13818;52.156;5.382;2023-03-15T11:47:09;101610.19;;;9.35;72.34
26043;BME280;13818;52.156;5.382;2023-03-15T11:49:42;101614.66;;;9.35;69.62
26043;BME280;13818;52.156;5.382;2023-03-15T11:52:11;101602.25;;;9.34;71.29
26043;BME280;13818;52.156;5.382;2023-03-15T11:54:40;101605.78;;;9.36;72.12
26043;BME280;13818;52.156;5.382;2023-03-15T11:57:42;101595.97;;;9.36;69.92
26043;BME280;13818;52.156;5.382;2023-03-15T12:03:34;101604.88;;;9.35;68.14
26043;BME280;13818;52.156;5.382;2023-03-15T12:06:35;101600.28;;;9.09;68.81
26043;BME280;13818;52.156;5.382;2023-03-15T12:12:05;101595.75;;;9.14;66.18
26043;BME280;13818;52.156;5.382;2023-03-15T12:14:35;101608.91;;;9.19;66.63
26043;BME280;13818;52.156;5.382;2023-03-15T12:17:35;101613.97;;;9.28;65.92
26043;BME280;13818;52.156;5.382;2023-03-15T12:20:07;101614.44;;;9.11;65.03
26043;BME280;13818;52.156;5.382;2023-03-15T12:22:34;101610.97;;;9.07;65.25
26043;BME280;13818;52.156;5.382;2023-03-15T12:25:07;101616.44;;;9.03;63.91
26043;BME280;13818;52.156;5.382;2023-03-15T12:27:39;101620.81;;;9.05;64.31
26043;BME280;13818;52.156;5.382;2023-03-15T12:30:19;101618.56;;;9.23;63.33
26043;BME280;13818;52.156;5.382;2023-03-15T12:32:49;101612.81;;;9.05;62.74
26043;BME280;13818;52.156;5.382;2023-03-15T12:35:19;101604.81;;;8.74;61.57
26043;BME280;13818;52.156;5.382;2023-03-15T12:37:47;101613.31;;;8.87;61.64
26043;BME280;13818;52.156;5.382;2023-03-15T12:40:37;101617.25;;;9.05;61.97
26043;BME280;13818;52.156;5.382;2023-03-15T12:43:04;101618.50;;;9.24;59.70
26043;BME280;13818;52.156;5.382;2023-03-15T12:48:21;101611.50;;;9.20;57.99
26043;BME280;13818;52.156;5.382;2023-03-15T12:50:50;101609.41;;;9.32;58.13
26043;BME280;13818;52.156;5.382;2023-03-15T12:53:18;101610.75;;;9.17;57.42
26043;BME280;13818;52.156;5.382;2023-03-15T12:55:48;101600.00;;;9.20;57.16
26043;BME280;13818;52.156;5.382;2023-03-15T12:58:17;101614.25;;;9.17;58.58
26043;BME280;13818;52.156;5.382;2023-03-15T13:00:51;101617.16;;;9.41;59.97
26043;BME280;13818;52.156;5.382;2023-03-15T13:03:20;101620.13;;;9.60;58.58
26043;BME280;13818;52.156;5.382;2023-03-15T13:05:51;101612.34;;;9.54;58.62
26043;BME280;13818;52.156;5.382;2023-03-15T13:08:22;101606.94;;;9.55;58.31
26043;BME280;13818;52.156;5.382;2023-03-15T13:11:03;101615.13;;;9.79;58.39